Pagrindinis puslapis
METAR-TAF:

METAR-TAF

Oro uostai :

Phetčabunas, Tailandas

platuma: 16-40-33N, ilguma: 101-11-42E, Aukštis: 137 m

Dabartinis oras

Ataskaita buvo paskelbta 38 minutes, ne 08:00 UTC
Vėjas 8 kt iš Šiaurės/Šiaurės Rytų, svyruoja nuo Šiaurės Vakarų ir Rytų/Šiaurės Rytų
Temperatūra 30°C
Drėgmė 40%
Slėgis 1013 hPa
Matomumas: 9000 m
Mažai debesys ne aukštis 3000 ft
Išsisklaidę debesys ne aukštis 10000 ft

METAR: VTPB 170800Z 02008KT 320V060 9000 FEW030 SCT100 30/15 Q1013 NOSIG

Laikas: 15:38 (08:38 UTC)

Prognozė

Ataskaita buvo paskelbta 3 valandos ir 38 minutes, ne 05:00 UTC
Prognozė galioja nuo 17 metu 06 UTC su 18 metu 06 UTC
Vėjas 5 kt iš Rytų/Pietryčių
Matomumas: 7000 m

TAF: VTPB 170500Z 1706/1806 12005KT 7000 NSC

Orai ataskaitas ir orų prognozės (METAR, TAF).

turimą stotys yra geltonos ir raudonos taškus žemėlapyje.

Perkelti pele per norėdami pamatyti stoties vardą.

Tada spustelėkite, norėdami matyti oro stebėjimo ir prognozės.

Norėdami pakeisti žemėlapį: spustelėkite ant žalios mygtukų su juodo kryžiaus žemyn,; žalią mygtuką su brūkšneliu, jei norite nutolinti; arba žalių rodyklių gretimoms žemėlapius.


METAR-TAF: